sensor_id;sensor_type;location;lat;lon;timestamp;temperature;humidity
3923;DHT22;1976;51.694;6.256;2023-01-16T00:00:19;5.40;99.90
3923;DHT22;1976;51.694;6.256;2023-01-16T00:02:45;5.50;99.90
3923;DHT22;1976;51.694;6.256;2023-01-16T00:05:11;5.50;99.90
3923;DHT22;1976;51.694;6.256;2023-01-16T00:07:37;5.50;99.90
3923;DHT22;1976;51.694;6.256;2023-01-16T00:10:03;5.40;99.90
3923;DHT22;1976;51.694;6.256;2023-01-16T00:12:29;5.40;99.90
3923;DHT22;1976;51.694;6.256;2023-01-16T00:14:55;5.40;99.90
3923;DHT22;1976;51.694;6.256;2023-01-16T00:17:20;5.50;99.90
3923;DHT22;1976;51.694;6.256;2023-01-16T00:19:46;5.50;99.90
3923;DHT22;1976;51.694;6.256;2023-01-16T00:22:13;5.50;99.90
3923;DHT22;1976;51.694;6.256;2023-01-16T00:24:38;5.40;99.90
3923;DHT22;1976;51.694;6.256;2023-01-16T00:27:04;5.40;99.90
3923;DHT22;1976;51.694;6.256;2023-01-16T00:29:30;5.40;99.90
3923;DHT22;1976;51.694;6.256;2023-01-16T00:31:55;5.50;99.90
3923;DHT22;1976;51.694;6.256;2023-01-16T00:34:21;5.40;99.90
3923;DHT22;1976;51.694;6.256;2023-01-16T00:36:46;5.40;99.90
3923;DHT22;1976;51.694;6.256;2023-01-16T00:39:12;5.30;99.90
3923;DHT22;1976;51.694;6.256;2023-01-16T00:41:37;5.30;99.90
3923;DHT22;1976;51.694;6.256;2023-01-16T00:44:03;5.40;99.90
3923;DHT22;1976;51.694;6.256;2023-01-16T00:46:29;5.40;99.90
3923;DHT22;1976;51.694;6.256;2023-01-16T00:48:55;5.40;99.90
3923;DHT22;1976;51.694;6.256;2023-01-16T00:51:21;5.50;99.90
3923;DHT22;1976;51.694;6.256;2023-01-16T00:53:47;5.60;99.90
3923;DHT22;1976;51.694;6.256;2023-01-16T00:56:13;5.60;99.90
3923;DHT22;1976;51.694;6.256;2023-01-16T00:58:39;5.70;99.90
3923;DHT22;1976;51.694;6.256;2023-01-16T01:01:04;5.70;99.90
3923;DHT22;1976;51.694;6.256;2023-01-16T01:03:31;5.70;99.90
3923;DHT22;1976;51.694;6.256;2023-01-16T01:05:57;5.70;99.90
3923;DHT22;1976;51.694;6.256;2023-01-16T01:08:23;5.70;99.90
3923;DHT22;1976;51.694;6.256;2023-01-16T01:10:48;5.80;99.90
3923;DHT22;1976;51.694;6.256;2023-01-16T01:13:14;5.70;99.90
3923;DHT22;1976;51.694;6.256;2023-01-16T01:15:40;5.70;99.90
3923;DHT22;1976;51.694;6.256;2023-01-16T01:18:06;5.60;99.90
3923;DHT22;1976;51.694;6.256;2023-01-16T01:20:31;5.60;99.90
3923;DHT22;1976;51.694;6.256;2023-01-16T01:22:57;5.60;99.90
3923;DHT22;1976;51.694;6.256;2023-01-16T01:25:24;5.60;99.90
3923;DHT22;1976;51.694;6.256;2023-01-16T01:27:49;5.60;99.90
3923;DHT22;1976;51.694;6.256;2023-01-16T01:30:15;5.60;99.90
3923;DHT22;1976;51.694;6.256;2023-01-16T01:32:41;5.70;99.90
3923;DHT22;1976;51.694;6.256;2023-01-16T01:35:08;5.70;99.90
3923;DHT22;1976;51.694;6.256;2023-01-16T01:37:35;5.70;99.90
3923;DHT22;1976;51.694;6.256;2023-01-16T01:40:02;5.70;99.90
3923;DHT22;1976;51.694;6.256;2023-01-16T01:42:29;5.70;99.90
3923;DHT22;1976;51.694;6.256;2023-01-16T01:45:17;5.70;99.90
3923;DHT22;1976;51.694;6.256;2023-01-16T01:48:15;5.70;99.90
3923;DHT22;1976;51.694;6.256;2023-01-16T01:50:50;5.70;99.90
3923;DHT22;1976;51.694;6.256;2023-01-16T01:53:22;5.70;99.90
3923;DHT22;1976;51.694;6.256;2023-01-16T01:55:50;5.70;99.90
3923;DHT22;1976;51.694;6.256;2023-01-16T01:58:20;5.70;99.90
3923;DHT22;1976;51.694;6.256;2023-01-16T02:00:53;5.70;99.90
3923;DHT22;1976;51.694;6.256;2023-01-16T02:03:27;5.60;99.90
3923;DHT22;1976;51.694;6.256;2023-01-16T02:05:58;5.50;99.90
3923;DHT22;1976;51.694;6.256;2023-01-16T02:08:27;5.50;99.90
3923;DHT22;1976;51.694;6.256;2023-01-16T02:11:15;5.50;99.90
3923;DHT22;1976;51.694;6.256;2023-01-16T02:14:04;5.40;99.90
3923;DHT22;1976;51.694;6.256;2023-01-16T02:16:31;5.40;99.90
3923;DHT22;1976;51.694;6.256;2023-01-16T02:19:44;5.30;99.90
3923;DHT22;1976;51.694;6.256;2023-01-16T02:31:09;5.20;99.90
3923;DHT22;1976;51.694;6.256;2023-01-16T02:44:43;5.10;99.90
3923;DHT22;1976;51.694;6.256;2023-01-16T02:55:33;5.00;99.90
3923;DHT22;1976;51.694;6.256;2023-01-16T02:58:02;4.90;99.90
3923;DHT22;1976;51.694;6.256;2023-01-16T03:00:29;4.90;99.90
3923;DHT22;1976;51.694;6.256;2023-01-16T03:02:55;4.90;99.90
3923;DHT22;1976;51.694;6.256;2023-01-16T03:05:21;4.80;99.90
3923;DHT22;1976;51.694;6.256;2023-01-16T03:13:48;4.90;99.90
3923;DHT22;1976;51.694;6.256;2023-01-16T03:22:35;4.90;99.90
3923;DHT22;1976;51.694;6.256;2023-01-16T03:30:45;4.90;99.90
3923;DHT22;1976;51.694;6.256;2023-01-16T03:38:24;5.00;99.90
3923;DHT22;1976;51.694;6.256;2023-01-16T03:40:54;5.00;99.90
3923;DHT22;1976;51.694;6.256;2023-01-16T03:43:34;4.90;99.90
3923;DHT22;1976;51.694;6.256;2023-01-16T03:48:41;4.90;99.90
3923;DHT22;1976;51.694;6.256;2023-01-16T03:51:13;4.90;99.90
3923;DHT22;1976;51.694;6.256;2023-01-16T03:53:46;4.90;99.90
3923;DHT22;1976;51.694;6.256;2023-01-16T03:56:32;4.90;99.90
3923;DHT22;1976;51.694;6.256;2023-01-16T03:59:00;4.90;99.90
3923;DHT22;1976;51.694;6.256;2023-01-16T04:04:06;4.90;99.90
3923;DHT22;1976;51.694;6.256;2023-01-16T04:06:40;4.90;99.90
3923;DHT22;1976;51.694;6.256;2023-01-16T04:09:12;4.80;99.90
3923;DHT22;1976;51.694;6.256;2023-01-16T04:11:39;4.90;99.90
3923;DHT22;1976;51.694;6.256;2023-01-16T04:14:07;4.90;99.90
3923;DHT22;1976;51.694;6.256;2023-01-16T04:16:34;4.90;99.90
3923;DHT22;1976;51.694;6.256;2023-01-16T04:19:01;4.90;99.90
3923;DHT22;1976;51.694;6.256;2023-01-16T04:21:28;4.90;99.90
3923;DHT22;1976;51.694;6.256;2023-01-16T04:23:55;4.80;99.90
3923;DHT22;1976;51.694;6.256;2023-01-16T04:26:22;4.80;99.90
3923;DHT22;1976;51.694;6.256;2023-01-16T04:28:47;4.70;99.90
3923;DHT22;1976;51.694;6.256;2023-01-16T04:31:19;4.80;99.90
3923;DHT22;1976;51.694;6.256;2023-01-16T04:33:44;4.80;99.90
3923;DHT22;1976;51.694;6.256;2023-01-16T04:36:10;4.90;99.90
3923;DHT22;1976;51.694;6.256;2023-01-16T04:38:36;4.90;99.90
3923;DHT22;1976;51.694;6.256;2023-01-16T04:41:01;4.90;99.90
3923;DHT22;1976;51.694;6.256;2023-01-16T04:43:27;4.90;99.90
3923;DHT22;1976;51.694;6.256;2023-01-16T04:45:52;5.00;99.90
3923;DHT22;1976;51.694;6.256;2023-01-16T04:48:18;4.90;99.90
3923;DHT22;1976;51.694;6.256;2023-01-16T04:50:47;5.00;99.90
3923;DHT22;1976;51.694;6.256;2023-01-16T04:53:13;5.00;99.90
3923;DHT22;1976;51.694;6.256;2023-01-16T04:55:39;5.00;99.90
3923;DHT22;1976;51.694;6.256;2023-01-16T04:58:04;5.00;99.90
3923;DHT22;1976;51.694;6.256;2023-01-16T05:00:30;5.10;99.90
3923;DHT22;1976;51.694;6.256;2023-01-16T05:02:56;5.10;99.90
3923;DHT22;1976;51.694;6.256;2023-01-16T05:05:21;5.10;99.90
3923;DHT22;1976;51.694;6.256;2023-01-16T05:07:47;5.10;99.90
3923;DHT22;1976;51.694;6.256;2023-01-16T05:10:32;5.10;99.90
3923;DHT22;1976;51.694;6.256;2023-01-16T05:12:58;5.00;99.90
3923;DHT22;1976;51.694;6.256;2023-01-16T05:15:24;5.00;99.90
3923;DHT22;1976;51.694;6.256;2023-01-16T05:17:49;5.00;99.90
3923;DHT22;1976;51.694;6.256;2023-01-16T05:20:15;5.00;99.90
3923;DHT22;1976;51.694;6.256;2023-01-16T05:22:41;5.10;99.90
3923;DHT22;1976;51.694;6.256;2023-01-16T05:25:06;5.30;99.90
3923;DHT22;1976;51.694;6.256;2023-01-16T05:27:32;5.30;99.90
3923;DHT22;1976;51.694;6.256;2023-01-16T05:29:58;5.30;99.90
3923;DHT22;1976;51.694;6.256;2023-01-16T05:32:23;5.30;99.90
3923;DHT22;1976;51.694;6.256;2023-01-16T05:34:49;5.40;99.90
3923;DHT22;1976;51.694;6.256;2023-01-16T05:37:14;5.40;99.90
3923;DHT22;1976;51.694;6.256;2023-01-16T05:39:40;5.30;99.90
3923;DHT22;1976;51.694;6.256;2023-01-16T05:42:06;5.30;99.90
3923;DHT22;1976;51.694;6.256;2023-01-16T05:44:49;5.40;99.90
3923;DHT22;1976;51.694;6.256;2023-01-16T05:47:15;5.30;99.90
3923;DHT22;1976;51.694;6.256;2023-01-16T05:49:40;5.40;99.90
3923;DHT22;1976;51.694;6.256;2023-01-16T05:52:06;5.40;99.90
3923;DHT22;1976;51.694;6.256;2023-01-16T05:54:32;5.40;99.90
3923;DHT22;1976;51.694;6.256;2023-01-16T05:56:57;5.40;99.90
3923;DHT22;1976;51.694;6.256;2023-01-16T05:59:23;5.50;99.90
3923;DHT22;1976;51.694;6.256;2023-01-16T06:01:49;5.60;99.90
3923;DHT22;1976;51.694;6.256;2023-01-16T06:04:15;5.70;99.90
3923;DHT22;1976;51.694;6.256;2023-01-16T06:06:40;5.70;99.90
3923;DHT22;1976;51.694;6.256;2023-01-16T06:09:06;5.70;99.90
3923;DHT22;1976;51.694;6.256;2023-01-16T06:11:32;5.70;99.90
3923;DHT22;1976;51.694;6.256;2023-01-16T06:13:57;5.70;99.90
3923;DHT22;1976;51.694;6.256;2023-01-16T06:16:29;5.70;99.90
3923;DHT22;1976;51.694;6.256;2023-01-16T06:18:54;5.70;99.90
3923;DHT22;1976;51.694;6.256;2023-01-16T06:21:20;5.70;99.90
3923;DHT22;1976;51.694;6.256;2023-01-16T06:23:45;5.70;99.90
3923;DHT22;1976;51.694;6.256;2023-01-16T06:26:11;5.70;99.90
3923;DHT22;1976;51.694;6.256;2023-01-16T06:28:37;5.70;99.90
3923;DHT22;1976;51.694;6.256;2023-01-16T06:31:03;5.60;99.90
3923;DHT22;1976;51.694;6.256;2023-01-16T06:33:29;5.70;99.90
3923;DHT22;1976;51.694;6.256;2023-01-16T06:35:55;5.60;99.90
3923;DHT22;1976;51.694;6.256;2023-01-16T06:38:21;5.60;99.90
3923;DHT22;1976;51.694;6.256;2023-01-16T06:40:47;5.60;99.90
3923;DHT22;1976;51.694;6.256;2023-01-16T06:43:13;5.60;99.90
3923;DHT22;1976;51.694;6.256;2023-01-16T06:45:40;5.70;99.90
3923;DHT22;1976;51.694;6.256;2023-01-16T06:48:06;5.70;99.90
3923;DHT22;1976;51.694;6.256;2023-01-16T06:50:31;5.80;99.90
3923;DHT22;1976;51.694;6.256;2023-01-16T06:52:57;5.90;99.90
3923;DHT22;1976;51.694;6.256;2023-01-16T06:55:23;5.80;99.90
3923;DHT22;1976;51.694;6.256;2023-01-16T06:57:48;5.90;99.90
3923;DHT22;1976;51.694;6.256;2023-01-16T07:00:15;5.80;99.90
3923;DHT22;1976;51.694;6.256;2023-01-16T07:02:41;5.80;99.90
3923;DHT22;1976;51.694;6.256;2023-01-16T07:05:10;5.80;99.90
3923;DHT22;1976;51.694;6.256;2023-01-16T07:07:36;5.80;99.90
3923;DHT22;1976;51.694;6.256;2023-01-16T07:10:03;5.70;99.90
3923;DHT22;1976;51.694;6.256;2023-01-16T07:12:28;5.60;99.90
3923;DHT22;1976;51.694;6.256;2023-01-16T07:14:54;5.50;99.90
3923;DHT22;1976;51.694;6.256;2023-01-16T07:17:38;5.40;99.90
3923;DHT22;1976;51.694;6.256;2023-01-16T07:20:23;5.30;99.90
3923;DHT22;1976;51.694;6.256;2023-01-16T07:23:22;5.20;99.90
3923;DHT22;1976;51.694;6.256;2023-01-16T07:25:50;5.20;99.90
3923;DHT22;1976;51.694;6.256;2023-01-16T07:28:19;5.10;99.90
3923;DHT22;1976;51.694;6.256;2023-01-16T07:30:45;5.10;99.90
3923;DHT22;1976;51.694;6.256;2023-01-16T07:33:11;5.10;99.90
3923;DHT22;1976;51.694;6.256;2023-01-16T07:35:37;5.20;99.90
3923;DHT22;1976;51.694;6.256;2023-01-16T07:38:03;5.30;99.90
3923;DHT22;1976;51.694;6.256;2023-01-16T07:40:29;5.30;99.90
3923;DHT22;1976;51.694;6.256;2023-01-16T07:42:55;5.30;99.90
3923;DHT22;1976;51.694;6.256;2023-01-16T07:45:20;5.30;99.90
3923;DHT22;1976;51.694;6.256;2023-01-16T07:47:46;5.30;99.90
3923;DHT22;1976;51.694;6.256;2023-01-16T07:50:12;5.30;99.90
3923;DHT22;1976;51.694;6.256;2023-01-16T07:52:38;5.30;99.90
3923;DHT22;1976;51.694;6.256;2023-01-16T07:55:04;5.30;99.90
3923;DHT22;1976;51.694;6.256;2023-01-16T07:57:30;5.30;99.90
3923;DHT22;1976;51.694;6.256;2023-01-16T07:59:55;5.30;99.90
3923;DHT22;1976;51.694;6.256;2023-01-16T08:02:21;5.20;99.90
3923;DHT22;1976;51.694;6.256;2023-01-16T08:04:47;5.20;99.90
3923;DHT22;1976;51.694;6.256;2023-01-16T08:07:13;5.20;99.90
3923;DHT22;1976;51.694;6.256;2023-01-16T08:09:38;5.20;99.90
3923;DHT22;1976;51.694;6.256;2023-01-16T08:12:04;5.20;99.90
3923;DHT22;1976;51.694;6.256;2023-01-16T08:14:30;5.20;99.90
3923;DHT22;1976;51.694;6.256;2023-01-16T08:16:56;5.20;99.90
3923;DHT22;1976;51.694;6.256;2023-01-16T08:19:21;5.30;99.90
3923;DHT22;1976;51.694;6.256;2023-01-16T08:21:47;5.20;99.90
3923;DHT22;1976;51.694;6.256;2023-01-16T08:24:12;5.30;99.90
3923;DHT22;1976;51.694;6.256;2023-01-16T08:26:40;5.20;99.90
3923;DHT22;1976;51.694;6.256;2023-01-16T08:29:06;5.20;99.90
3923;DHT22;1976;51.694;6.256;2023-01-16T08:31:32;5.20;99.90
3923;DHT22;1976;51.694;6.256;2023-01-16T08:33:58;5.20;99.90
3923;DHT22;1976;51.694;6.256;2023-01-16T08:36:23;5.30;99.90
3923;DHT22;1976;51.694;6.256;2023-01-16T08:38:51;5.30;99.90
3923;DHT22;1976;51.694;6.256;2023-01-16T08:41:17;5.30;99.90
3923;DHT22;1976;51.694;6.256;2023-01-16T08:44:02;5.30;99.90
3923;DHT22;1976;51.694;6.256;2023-01-16T08:49:44;5.30;99.90
3923;DHT22;1976;51.694;6.256;2023-01-16T08:52:29;5.30;99.90
3923;DHT22;1976;51.694;6.256;2023-01-16T08:54:57;5.30;99.90
3923;DHT22;1976;51.694;6.256;2023-01-16T08:57:23;5.30;99.90
3923;DHT22;1976;51.694;6.256;2023-01-16T08:59:49;5.30;99.90
3923;DHT22;1976;51.694;6.256;2023-01-16T09:02:15;5.30;99.90
3923;DHT22;1976;51.694;6.256;2023-01-16T09:04:41;5.30;99.90
3923;DHT22;1976;51.694;6.256;2023-01-16T09:07:06;5.30;99.90
3923;DHT22;1976;51.694;6.256;2023-01-16T09:09:32;5.40;99.90
3923;DHT22;1976;51.694;6.256;2023-01-16T09:11:58;5.30;99.90
3923;DHT22;1976;51.694;6.256;2023-01-16T09:14:42;5.30;99.90
3923;DHT22;1976;51.694;6.256;2023-01-16T09:17:08;5.30;99.90
3923;DHT22;1976;51.694;6.256;2023-01-16T09:19:34;5.30;99.90
3923;DHT22;1976;51.694;6.256;2023-01-16T09:22:01;5.30;99.90
3923;DHT22;1976;51.694;6.256;2023-01-16T09:24:26;5.20;99.90
3923;DHT22;1976;51.694;6.256;2023-01-16T09:26:52;5.20;99.90
3923;DHT22;1976;51.694;6.256;2023-01-16T09:29:18;5.20;99.90
3923;DHT22;1976;51.694;6.256;2023-01-16T09:31:43;5.20;99.90
3923;DHT22;1976;51.694;6.256;2023-01-16T09:34:09;5.10;99.90
3923;DHT22;1976;51.694;6.256;2023-01-16T09:36:35;5.00;99.90
3923;DHT22;1976;51.694;6.256;2023-01-16T09:39:00;5.10;99.90
3923;DHT22;1976;51.694;6.256;2023-01-16T09:41:28;5.10;99.90
3923;DHT22;1976;51.694;6.256;2023-01-16T09:44:17;5.10;99.90
3923;DHT22;1976;51.694;6.256;2023-01-16T09:46:46;5.10;99.90
3923;DHT22;1976;51.694;6.256;2023-01-16T09:49:21;5.10;99.90
3923;DHT22;1976;51.694;6.256;2023-01-16T09:52:09;5.10;99.90
3923;DHT22;1976;51.694;6.256;2023-01-16T09:54:58;5.20;99.90
3923;DHT22;1976;51.694;6.256;2023-01-16T09:57:46;5.10;99.90
3923;DHT22;1976;51.694;6.256;2023-01-16T10:00:34;5.00;99.90
3923;DHT22;1976;51.694;6.256;2023-01-16T10:03:00;5.00;99.90
3923;DHT22;1976;51.694;6.256;2023-01-16T10:05:34;5.00;99.90
3923;DHT22;1976;51.694;6.256;2023-01-16T10:11:03;4.90;99.90
3923;DHT22;1976;51.694;6.256;2023-01-16T10:27:32;4.90;99.90
3923;DHT22;1976;51.694;6.256;2023-01-16T10:30:07;4.90;99.90
3923;DHT22;1976;51.694;6.256;2023-01-16T10:32:46;5.00;99.90
3923;DHT22;1976;51.694;6.256;2023-01-16T10:35:23;4.90;99.90
3923;DHT22;1976;51.694;6.256;2023-01-16T10:37:49;4.90;99.90
3923;DHT22;1976;51.694;6.256;2023-01-16T10:40:23;4.90;99.90
3923;DHT22;1976;51.694;6.256;2023-01-16T10:43:06;5.00;99.90
3923;DHT22;1976;51.694;6.256;2023-01-16T10:45:55;4.90;99.90
3923;DHT22;1976;51.694;6.256;2023-01-16T10:48:43;4.90;99.90
3923;DHT22;1976;51.694;6.256;2023-01-16T10:51:27;4.90;99.90
3923;DHT22;1976;51.694;6.256;2023-01-16T10:53:53;4.90;99.90
3923;DHT22;1976;51.694;6.256;2023-01-16T10:56:18;4.90;99.90
3923;DHT22;1976;51.694;6.256;2023-01-16T10:58:44;5.00;99.90
3923;DHT22;1976;51.694;6.256;2023-01-16T11:01:22;5.10;99.90
3923;DHT22;1976;51.694;6.256;2023-01-16T11:03:52;5.10;99.90
3923;DHT22;1976;51.694;6.256;2023-01-16T11:06:21;5.20;99.90
3923;DHT22;1976;51.694;6.256;2023-01-16T11:08:49;5.20;99.90
3923;DHT22;1976;51.694;6.256;2023-01-16T11:11:18;5.30;99.90
3923;DHT22;1976;51.694;6.256;2023-01-16T11:14:21;5.40;99.90
3923;DHT22;1976;51.694;6.256;2023-01-16T11:17:26;5.50;99.90
3923;DHT22;1976;51.694;6.256;2023-01-16T11:20:18;5.60;99.90
3923;DHT22;1976;51.694;6.256;2023-01-16T11:22:47;5.70;99.90
3923;DHT22;1976;51.694;6.256;2023-01-16T11:25:17;6.10;99.90
3923;DHT22;1976;51.694;6.256;2023-01-16T11:27:46;6.40;99.90
3923;DHT22;1976;51.694;6.256;2023-01-16T11:30:28;6.70;99.90
3923;DHT22;1976;51.694;6.256;2023-01-16T11:32:54;6.90;99.90
3923;DHT22;1976;51.694;6.256;2023-01-16T11:35:31;7.10;99.90
3923;DHT22;1976;51.694;6.256;2023-01-16T11:37:58;7.10;99.90
3923;DHT22;1976;51.694;6.256;2023-01-16T11:40:26;7.10;99.90
3923;DHT22;1976;51.694;6.256;2023-01-16T11:42:55;6.90;99.90
3923;DHT22;1976;51.694;6.256;2023-01-16T11:45:44;6.90;99.90
3923;DHT22;1976;51.694;6.256;2023-01-16T11:48:42;6.90;99.90
3923;DHT22;1976;51.694;6.256;2023-01-16T11:51:16;7.10;99.90
3923;DHT22;1976;51.694;6.256;2023-01-16T11:53:44;7.10;99.90
3923;DHT22;1976;51.694;6.256;2023-01-16T12:02:20;6.90;99.90
3923;DHT22;1976;51.694;6.256;2023-01-16T12:05:23;7.00;99.90
3923;DHT22;1976;51.694;6.256;2023-01-16T12:10:53;6.80;99.90
3923;DHT22;1976;51.694;6.256;2023-01-16T12:13:36;6.70;99.90
3923;DHT22;1976;51.694;6.256;2023-01-16T12:17:11;6.60;99.90
3923;DHT22;1976;51.694;6.256;2023-01-16T12:28:09;6.60;99.90
3923;DHT22;1976;51.694;6.256;2023-01-16T12:36:06;6.40;99.90
3923;DHT22;1976;51.694;6.256;2023-01-16T12:38:37;6.20;99.90
3923;DHT22;1976;51.694;6.256;2023-01-16T12:52:43;6.00;99.90
3923;DHT22;1976;51.694;6.256;2023-01-16T12:57:46;5.90;99.90
3923;DHT22;1976;51.694;6.256;2023-01-16T13:00:23;5.90;99.90
3923;DHT22;1976;51.694;6.256;2023-01-16T13:03:13;5.90;99.90
3923;DHT22;1976;51.694;6.256;2023-01-16T13:05:42;5.90;99.90
3923;DHT22;1976;51.694;6.256;2023-01-16T13:08:29;5.80;99.90
3923;DHT22;1976;51.694;6.256;2023-01-16T13:11:01;5.80;99.90
3923;DHT22;1976;51.694;6.256;2023-01-16T13:13:55;5.70;99.90
3923;DHT22;1976;51.694;6.256;2023-01-16T13:16:31;5.70;99.90
3923;DHT22;1976;51.694;6.256;2023-01-16T13:21:39;5.70;99.90
3923;DHT22;1976;51.694;6.256;2023-01-16T13:24:18;5.80;99.90
3923;DHT22;1976;51.694;6.256;2023-01-16T13:26:52;5.80;99.90
3923;DHT22;1976;51.694;6.256;2023-01-16T13:29:41;5.80;99.90
3923;DHT22;1976;51.694;6.256;2023-01-16T13:32:24;5.80;99.90
3923;DHT22;1976;51.694;6.256;2023-01-16T13:35:03;5.80;99.90
3923;DHT22;1976;51.694;6.256;2023-01-16T13:37:50;5.70;99.90
3923;DHT22;1976;51.694;6.256;2023-01-16T13:43:30;5.60;99.90
3923;DHT22;1976;51.694;6.256;2023-01-16T13:46:17;5.50;99.90
3923;DHT22;1976;51.694;6.256;2023-01-16T13:48:50;5.50;99.90
3923;DHT22;1976;51.694;6.256;2023-01-16T13:51:17;5.50;99.90
3923;DHT22;1976;51.694;6.256;2023-01-16T13:53:49;5.60;99.90
3923;DHT22;1976;51.694;6.256;2023-01-16T13:56:21;5.50;99.90
3923;DHT22;1976;51.694;6.256;2023-01-16T13:59:01;5.60;99.90
3923;DHT22;1976;51.694;6.256;2023-01-16T14:04:27;5.70;99.90
3923;DHT22;1976;51.694;6.256;2023-01-16T14:06:55;5.70;99.90
3923;DHT22;1976;51.694;6.256;2023-01-16T14:12:41;5.60;99.90
3923;DHT22;1976;51.694;6.256;2023-01-16T14:15:21;5.50;99.90
3923;DHT22;1976;51.694;6.256;2023-01-16T14:19:20;5.60;99.90
3923;DHT22;1976;51.694;6.256;2023-01-16T14:24:15;5.70;99.90
3923;DHT22;1976;51.694;6.256;2023-01-16T14:26:54;5.80;99.90
3923;DHT22;1976;51.694;6.256;2023-01-16T14:29:32;5.70;99.90
3923;DHT22;1976;51.694;6.256;2023-01-16T14:32:05;5.80;99.90
3923;DHT22;1976;51.694;6.256;2023-01-16T14:37:24;5.70;99.90
3923;DHT22;1976;51.694;6.256;2023-01-16T14:50:50;5.50;99.90
3923;DHT22;1976;51.694;6.256;2023-01-16T14:53:35;5.50;99.90
3923;DHT22;1976;51.694;6.256;2023-01-16T14:56:30;5.40;99.90
3923;DHT22;1976;51.694;6.256;2023-01-16T15:04:57;5.40;99.90
3923;DHT22;1976;51.694;6.256;2023-01-16T15:07:55;5.40;99.90
3923;DHT22;1976;51.694;6.256;2023-01-16T15:10:41;5.40;99.90
3923;DHT22;1976;51.694;6.256;2023-01-16T15:13:28;5.40;99.90
3923;DHT22;1976;51.694;6.256;2023-01-16T15:16:17;5.40;99.90
3923;DHT22;1976;51.694;6.256;2023-01-16T15:19:17;5.40;99.90
3923;DHT22;1976;51.694;6.256;2023-01-16T15:22:06;5.40;99.90
3923;DHT22;1976;51.694;6.256;2023-01-16T15:24:39;5.30;99.90
3923;DHT22;1976;51.694;6.256;2023-01-16T15:27:23;5.20;99.90
3923;DHT22;1976;51.694;6.256;2023-01-16T15:30:04;5.20;99.90
3923;DHT22;1976;51.694;6.256;2023-01-16T15:35:21;5.10;99.90
3923;DHT22;1976;51.694;6.256;2023-01-16T15:37:52;5.10;99.90
3923;DHT22;1976;51.694;6.256;2023-01-16T15:40:22;5.00;99.90
3923;DHT22;1976;51.694;6.256;2023-01-16T15:42:47;5.00;99.90
3923;DHT22;1976;51.694;6.256;2023-01-16T15:45:36;5.00;99.90
3923;DHT22;1976;51.694;6.256;2023-01-16T15:51:36;4.90;99.90
3923;DHT22;1976;51.694;6.256;2023-01-16T15:54:02;4.90;99.90
3923;DHT22;1976;51.694;6.256;2023-01-16T15:56:35;4.90;99.90
3923;DHT22;1976;51.694;6.256;2023-01-16T15:59:01;4.90;99.90
3923;DHT22;1976;51.694;6.256;2023-01-16T16:01:33;4.90;99.90
3923;DHT22;1976;51.694;6.256;2023-01-16T16:04:02;4.80;99.90
3923;DHT22;1976;51.694;6.256;2023-01-16T16:06:29;4.90;99.90
3923;DHT22;1976;51.694;6.256;2023-01-16T16:08:56;4.90;99.90
3923;DHT22;1976;51.694;6.256;2023-01-16T16:11:29;4.90;99.90
3923;DHT22;1976;51.694;6.256;2023-01-16T16:14:24;4.90;99.90
3923;DHT22;1976;51.694;6.256;2023-01-16T16:20:33;4.90;99.90
3923;DHT22;1976;51.694;6.256;2023-01-16T16:28:25;4.90;99.90
3923;DHT22;1976;51.694;6.256;2023-01-16T16:31:02;4.90;99.90
3923;DHT22;1976;51.694;6.256;2023-01-16T16:33:31;5.00;99.90
3923;DHT22;1976;51.694;6.256;2023-01-16T16:35:59;5.00;99.90
3923;DHT22;1976;51.694;6.256;2023-01-16T16:38:50;5.00;99.90
3923;DHT22;1976;51.694;6.256;2023-01-16T16:41:46;5.00;99.90
3923;DHT22;1976;51.694;6.256;2023-01-16T16:44:38;5.00;99.90
3923;DHT22;1976;51.694;6.256;2023-01-16T16:47:33;5.00;99.90
3923;DHT22;1976;51.694;6.256;2023-01-16T16:49:59;5.00;99.90
3923;DHT22;1976;51.694;6.256;2023-01-16T16:52:29;5.00;99.90
3923;DHT22;1976;51.694;6.256;2023-01-16T16:54:59;5.10;99.90
3923;DHT22;1976;51.694;6.256;2023-01-16T16:57:28;5.20;99.90
3923;DHT22;1976;51.694;6.256;2023-01-16T16:59:56;5.20;99.90
3923;DHT22;1976;51.694;6.256;2023-01-16T17:02:22;5.20;99.90
3923;DHT22;1976;51.694;6.256;2023-01-16T17:04:48;5.10;99.90
3923;DHT22;1976;51.694;6.256;2023-01-16T17:07:14;5.10;99.90
3923;DHT22;1976;51.694;6.256;2023-01-16T17:09:40;5.10;99.90
3923;DHT22;1976;51.694;6.256;2023-01-16T17:12:16;5.20;99.90
3923;DHT22;1976;51.694;6.256;2023-01-16T17:14:42;5.20;99.90
3923;DHT22;1976;51.694;6.256;2023-01-16T17:17:12;5.20;99.90
3923;DHT22;1976;51.694;6.256;2023-01-16T17:19:39;5.20;99.90
3923;DHT22;1976;51.694;6.256;2023-01-16T17:22:05;5.20;99.90
3923;DHT22;1976;51.694;6.256;2023-01-16T17:24:31;5.20;99.90
3923;DHT22;1976;51.694;6.256;2023-01-16T17:26:57;5.30;99.90
3923;DHT22;1976;51.694;6.256;2023-01-16T17:29:22;5.20;99.90
3923;DHT22;1976;51.694;6.256;2023-01-16T17:31:48;5.30;99.90
3923;DHT22;1976;51.694;6.256;2023-01-16T17:34:19;5.20;99.90
3923;DHT22;1976;51.694;6.256;2023-01-16T17:36:45;5.30;99.90
3923;DHT22;1976;51.694;6.256;2023-01-16T17:39:15;5.30;99.90
3923;DHT22;1976;51.694;6.256;2023-01-16T17:41:41;5.30;99.90
3923;DHT22;1976;51.694;6.256;2023-01-16T17:44:22;5.30;99.90
3923;DHT22;1976;51.694;6.256;2023-01-16T17:47:07;5.30;99.90
3923;DHT22;1976;51.694;6.256;2023-01-16T17:49:33;5.30;99.90
3923;DHT22;1976;51.694;6.256;2023-01-16T17:52:22;5.30;99.90
3923;DHT22;1976;51.694;6.256;2023-01-16T17:54:48;5.30;99.90
3923;DHT22;1976;51.694;6.256;2023-01-16T17:57:32;5.30;99.90
3923;DHT22;1976;51.694;6.256;2023-01-16T17:59:58;5.30;99.90
3923;DHT22;1976;51.694;6.256;2023-01-16T18:02:24;5.30;99.90
3923;DHT22;1976;51.694;6.256;2023-01-16T18:04:50;5.30;99.90
3923;DHT22;1976;51.694;6.256;2023-01-16T18:07:16;5.40;99.90
3923;DHT22;1976;51.694;6.256;2023-01-16T18:09:42;5.40;99.90
3923;DHT22;1976;51.694;6.256;2023-01-16T18:12:09;5.40;99.90
3923;DHT22;1976;51.694;6.256;2023-01-16T18:14:53;5.40;99.90
3923;DHT22;1976;51.694;6.256;2023-01-16T18:17:38;5.40;99.90
3923;DHT22;1976;51.694;6.256;2023-01-16T18:20:04;5.40;99.90
3923;DHT22;1976;51.694;6.256;2023-01-16T18:22:32;5.30;99.90
3923;DHT22;1976;51.694;6.256;2023-01-16T18:25:03;5.30;99.90
3923;DHT22;1976;51.694;6.256;2023-01-16T18:27:29;5.40;99.90
3923;DHT22;1976;51.694;6.256;2023-01-16T18:29:55;5.40;99.90
3923;DHT22;1976;51.694;6.256;2023-01-16T18:32:21;5.40;99.90
3923;DHT22;1976;51.694;6.256;2023-01-16T18:35:04;5.40;99.90
3923;DHT22;1976;51.694;6.256;2023-01-16T18:37:37;5.50;99.90
3923;DHT22;1976;51.694;6.256;2023-01-16T18:40:09;5.50;99.90
3923;DHT22;1976;51.694;6.256;2023-01-16T18:42:53;5.50;99.90
3923;DHT22;1976;51.694;6.256;2023-01-16T18:45:38;5.60;99.90
3923;DHT22;1976;51.694;6.256;2023-01-16T18:48:22;5.60;99.90
3923;DHT22;1976;51.694;6.256;2023-01-16T18:51:14;5.60;99.90
3923;DHT22;1976;51.694;6.256;2023-01-16T18:54:00;5.60;99.90
3923;DHT22;1976;51.694;6.256;2023-01-16T18:56:57;5.70;99.90
3923;DHT22;1976;51.694;6.256;2023-01-16T18:59:41;5.60;99.90
3923;DHT22;1976;51.694;6.256;2023-01-16T19:05:03;5.60;99.90
3923;DHT22;1976;51.694;6.256;2023-01-16T19:07:29;5.60;99.90
3923;DHT22;1976;51.694;6.256;2023-01-16T19:09:57;5.70;99.90
3923;DHT22;1976;51.694;6.256;2023-01-16T19:12:27;5.70;99.90
3923;DHT22;1976;51.694;6.256;2023-01-16T19:14:56;5.70;99.90
3923;DHT22;1976;51.694;6.256;2023-01-16T19:17:21;5.70;99.90
3923;DHT22;1976;51.694;6.256;2023-01-16T19:19:47;5.70;99.90
3923;DHT22;1976;51.694;6.256;2023-01-16T19:22:12;5.50;99.90
3923;DHT22;1976;51.694;6.256;2023-01-16T19:24:38;5.30;99.90
3923;DHT22;1976;51.694;6.256;2023-01-16T19:27:04;5.20;99.90
3923;DHT22;1976;51.694;6.256;2023-01-16T19:29:30;5.20;99.90
3923;DHT22;1976;51.694;6.256;2023-01-16T19:31:57;5.10;99.90